Flight Track Log - Related Links

Times and Time Zones

All times are in EDT time to prevent confusion due to time zone crossing. See the TAM3162 flight status page for this flight to view local times or setup timezone preferences in your user account.

Time Position Orientation Groundspeed Altitude Reporting Facility
EDT Latitude Longitude Course Direction KTS MPH feet Rate Location/Type
Mon 07:27:32 PM -28.7659 -50.2505 33° Northeast  Level Estimated
Mon 07:28:32 PM -28.6956 -50.1986 33° Northeast  Level Estimated
Mon 07:29:32 PM -28.6253 -50.1468 33° Northeast  Level Estimated
Mon 07:30:32 PM -28.5550 -50.0951 33° Northeast  Level Estimated
Mon 07:31:32 PM -28.4847 -50.0434 33° Northeast  Level Estimated
Mon 07:32:32 PM -28.4144 -49.9918 33° Northeast  Level Estimated
Mon 07:33:32 PM -28.3440 -49.9403 33° Northeast  Level Estimated
Mon 07:34:32 PM -28.2736 -49.8889 33° Northeast  Level Estimated
Mon 07:35:32 PM -28.2032 -49.8375 33° Northeast  Level Estimated
Mon 07:36:32 PM -28.1328 -49.7862 33° Northeast  Level Estimated
Mon 07:37:32 PM -28.0624 -49.7349 33° Northeast  Level Estimated
Mon 07:38:32 PM -27.9919 -49.6837 33° Northeast  Level Estimated
Mon 07:39:32 PM -27.9215 -49.6326 33° Northeast  Level Estimated
Mon 07:40:32 PM -27.8510 -49.5816 33° Northeast  Level Estimated
Mon 07:41:32 PM -27.7805 -49.5306 33° Northeast  Level Estimated
Mon 07:42:32 PM -27.7099 -49.4797 33° Northeast  Level Estimated
Mon 07:43:32 PM -27.6394 -49.4288 33° Northeast  Level Estimated
Mon 07:44:32 PM -27.5688 -49.3781 33° Northeast  Level Estimated
Mon 07:45:32 PM -27.4982 -49.3273 32° Northeast  Level Estimated
Mon 07:46:32 PM -27.4277 -49.2767 32° Northeast  Level Estimated
Mon 07:47:32 PM -27.3570 -49.2261 32° Northeast  Level Estimated
Mon 07:48:32 PM -27.2864 -49.1756 32° Northeast  Level Estimated
Mon 07:49:32 PM -27.2157 -49.1251 32° Northeast  Level Estimated
Mon 07:50:32 PM -27.1451 -49.0747 32° Northeast  Level Estimated
Mon 07:51:32 PM -27.0744 -49.0244 32° Northeast  Level Estimated
Mon 07:52:32 PM -27.0037 -48.9741 32° Northeast  Level Estimated
Mon 07:53:32 PM -26.9329 -48.9239 32° Northeast  Level Estimated
Mon 07:54:32 PM -26.8622 -48.8738 32° Northeast  Level Estimated
Mon 07:55:32 PM -26.7914 -48.8237 32° Northeast  Level Estimated
Mon 07:56:32 PM -26.7206 -48.7737 32° Northeast  Level Estimated
Mon 07:57:32 PM -26.6498 -48.7237 32° Northeast  Level Estimated
Mon 07:58:32 PM -26.5790 -48.6738 32° Northeast  Level Estimated
Mon 07:59:32 PM -26.5082 -48.6240 32° Northeast  Level Estimated
Mon 08:00:32 PM -26.4373 -48.5742 32° Northeast  Level Estimated
Mon 08:01:32 PM -26.3665 -48.5245 32° Northeast  Level Estimated
Mon 08:02:32 PM -26.2956 -48.4748 32° Northeast  Level Estimated
Mon 08:03:32 PM -26.2247 -48.4253 32° Northeast  Level Estimated
Mon 08:04:32 PM -26.1538 -48.3757 32° Northeast  Level Estimated
Mon 08:05:32 PM -26.0828 -48.3263 32° Northeast  Level Estimated
Mon 08:06:32 PM -26.0119 -48.2769 32° Northeast  Level Estimated
Mon 08:07:32 PM -25.9409 -48.2275 32° Northeast  Level Estimated
Mon 08:08:32 PM -25.8699 -48.1782 32° Northeast  Level Estimated
Mon 08:09:32 PM -25.7989 -48.1290 32° Northeast  Level Estimated
Mon 08:10:32 PM -25.7279 -48.0798 32° Northeast  Level Estimated
Mon 08:11:32 PM -25.6569 -48.0307 32° Northeast  Level Estimated
Mon 08:12:32 PM -25.5858 -47.9817 32° Northeast  Level Estimated
Mon 08:13:32 PM -25.5147 -47.9327 32° Northeast  Level Estimated
Mon 08:14:32 PM -25.4436 -47.8837 32° Northeast  Level Estimated
Mon 08:15:32 PM -25.3725 -47.8348 32° Northeast  Level Estimated
Mon 08:16:32 PM -25.3014 -47.7860 32° Northeast  Level Estimated
Mon 08:17:32 PM -25.2303 -47.7373 32° Northeast  Level Estimated
Mon 08:18:32 PM -25.1591 -47.6885 32° Northeast  Level Estimated
Mon 08:19:32 PM -25.0880 -47.6399 32° Northeast  Level Estimated
Mon 08:20:32 PM -25.0168 -47.5913 32° Northeast  Level Estimated
Mon 08:21:32 PM -24.9456 -47.5428 32° Northeast  Level Estimated
Mon 08:22:32 PM -24.8744 -47.4943 32° Northeast  Level Estimated
Mon 08:23:32 PM -24.8032 -47.4459 32° Northeast  Level Estimated
Mon 08:24:32 PM -24.7319 -47.3975 32° Northeast  Level Estimated
Mon 08:25:32 PM -24.6607 -47.3492 32° Northeast  Level Estimated
Mon 08:26:32 PM -24.5894 -47.3009 32° Northeast  Level Estimated
Mon 08:27:32 PM -24.5181 -47.2527 32° Northeast  Level Estimated
Mon 08:28:32 PM -24.4468 -47.2046 32° Northeast  Level Estimated
Mon 08:29:32 PM -24.3755 -47.1565 32° Northeast  Level Estimated
Mon 08:30:32 PM -24.3041 -47.1084 32° Northeast  Level Estimated
Mon 08:31:32 PM -24.2328 -47.0604 32° Northeast  Level Estimated
Mon 08:32:32 PM -24.1614 -47.0125 31° Northeast  Level Estimated
Mon 08:33:32 PM -24.0900 -46.9646 31° Northeast  Level Estimated
Mon 08:34:32 PM -24.0186 -46.9168 31° Northeast  Level Estimated
Mon 08:35:32 PM -23.9472 -46.8690 31° Northeast  Level Estimated
Mon 08:36:32 PM -23.8758 -46.8213 31° Northeast  Level Estimated
Mon 08:37:32 PM -23.8043 -46.7736 31° Northeast  Level Estimated
Mon 08:38:32 PM -23.7329 -46.7260 31° Northeast  Level Estimated
Mon 08:39:32 PM -23.6614 -46.6785 31° Northeast  Level Estimated
Mon 08:40:32 PM -23.5899 -46.6310 211° Southwest  Level Estimated
Mon 08:41:32 PM -23.6614 -46.6785 31° Northeast  Level Estimated
Mon 08:42:32 PM -23.5899 -46.6310 211° Southwest  Level Estimated
Mon 08:43:32 PM -23.6614 -46.6785 31° Northeast  Level Estimated
Mon 08:44:32 PM -23.5899 -46.6310 211° Southwest  Level Estimated
Mon 08:45:32 PM -23.6614 -46.6785 31° Northeast  Level Estimated
Mon 08:46:32 PM -23.5899 -46.6310 211° Southwest  Level Estimated
Mon 08:47:32 PM -23.6614 -46.6785 31° Northeast  Level Estimated
Mon 08:48:32 PM -23.5899 -46.6310 211° Southwest  Level Estimated
Mon 08:49:32 PM -23.6614 -46.6785 31° Northeast  Level Estimated
Mon 08:50:32 PM -23.5899 -46.6310 211° Southwest  Level Estimated
Mon 08:51:32 PM -23.6614 -46.6785 211° Southwest  Level Estimated

Login

Don't have an account? Register now (free) for customized features, flight alerts, and more!